KPSM/PSM METAR and TAF weather

Enter ICAO airport designator
Station Type Date Time Source
KPSM METAR 2019/05/26 22:56 UTC NOAA

KPSM 262256Z 31005KT 10SM FEW075 SCT120 BKN250 27/12 A2974 RMK AO2A SLP073 T02650118


Station Type Date Time Source
KPSM Decoded METAR 2019/05/26 22:56 UTC NOAA

Pease Air Force Base / Portsmouth, NH, United States (KPSM) 43-05N 070-49W
May 26, 2019 - 06:56 PM EDT / 2019.05.26 2256 UTC
Wind: from the NW (310 degrees) at 6 MPH (5 KT):0
Visibility: 10 mile(s):0
Sky conditions: mostly cloudy
Temperature: 79.7 F (26.5 C)
Dew Point: 53.2 F (11.8 C)
Relative Humidity: 39%
Pressure (altimeter): 29.74 in. Hg (1007 hPa)
ob: KPSM 262256Z 31005KT 10SM FEW075 SCT120 BKN250 27/12 A2974 RMK AO2A SLP073 T02650118
cycle: 23

Station Type Date Time Source
KPSM TAF 2019/05/26 21:09 UTC NOAA

TAF
AMD KPSM 262106Z 2621/2718 30006KT P6SM FEW080 SCT100 BKN250
FM270000 31005KT P6SM FEW250
FM271200 32008KT P6SM SCT250

Example: see airport list